sensor_id;sensor_type;location;lat;lon;timestamp;temperature;humidity
56076;DHT22;41951;49.022;12.066;2023-04-19T00:01:21;9.70;99.90
56076;DHT22;41951;49.022;12.066;2023-04-19T00:03:48;9.70;99.90
56076;DHT22;41951;49.022;12.066;2023-04-19T00:06:14;9.80;99.90
56076;DHT22;41951;49.022;12.066;2023-04-19T00:08:40;9.80;99.90
56076;DHT22;41951;49.022;12.066;2023-04-19T00:11:07;9.80;99.90
56076;DHT22;41951;49.022;12.066;2023-04-19T00:13:33;9.80;99.90
56076;DHT22;41951;49.022;12.066;2023-04-19T00:15:59;9.80;99.90
56076;DHT22;41951;49.022;12.066;2023-04-19T00:18:25;9.70;99.90
56076;DHT22;41951;49.022;12.066;2023-04-19T00:20:50;9.70;99.90
56076;DHT22;41951;49.022;12.066;2023-04-19T00:23:16;9.70;99.90
56076;DHT22;41951;49.022;12.066;2023-04-19T00:25:42;9.60;99.90
56076;DHT22;41951;49.022;12.066;2023-04-19T00:28:07;9.60;99.90
56076;DHT22;41951;49.022;12.066;2023-04-19T00:30:33;9.60;99.90
56076;DHT22;41951;49.022;12.066;2023-04-19T00:32:58;9.60;99.90
56076;DHT22;41951;49.022;12.066;2023-04-19T00:35:24;9.60;99.90
56076;DHT22;41951;49.022;12.066;2023-04-19T00:37:50;9.50;99.90
56076;DHT22;41951;49.022;12.066;2023-04-19T00:40:15;9.50;99.90
56076;DHT22;41951;49.022;12.066;2023-04-19T00:42:41;9.50;99.90
56076;DHT22;41951;49.022;12.066;2023-04-19T00:45:07;9.50;99.90
56076;DHT22;41951;49.022;12.066;2023-04-19T00:47:33;9.40;99.90
56076;DHT22;41951;49.022;12.066;2023-04-19T00:50:01;9.40;99.90
56076;DHT22;41951;49.022;12.066;2023-04-19T00:52:28;9.40;99.90
56076;DHT22;41951;49.022;12.066;2023-04-19T00:54:54;9.40;99.90
56076;DHT22;41951;49.022;12.066;2023-04-19T00:57:21;9.40;99.90
56076;DHT22;41951;49.022;12.066;2023-04-19T00:59:48;9.40;99.90
56076;DHT22;41951;49.022;12.066;2023-04-19T01:02:13;9.30;99.90
56076;DHT22;41951;49.022;12.066;2023-04-19T01:04:39;9.30;99.90
56076;DHT22;41951;49.022;12.066;2023-04-19T01:07:04;9.30;99.90
56076;DHT22;41951;49.022;12.066;2023-04-19T01:09:31;9.30;99.90
56076;DHT22;41951;49.022;12.066;2023-04-19T01:11:56;9.30;99.90
56076;DHT22;41951;49.022;12.066;2023-04-19T01:14:23;9.20;99.90
56076;DHT22;41951;49.022;12.066;2023-04-19T01:16:48;9.20;99.90
56076;DHT22;41951;49.022;12.066;2023-04-19T01:19:14;9.20;99.90
56076;DHT22;41951;49.022;12.066;2023-04-19T01:21:41;9.20;99.90
56076;DHT22;41951;49.022;12.066;2023-04-19T01:24:08;9.20;99.90
56076;DHT22;41951;49.022;12.066;2023-04-19T01:26:33;9.20;99.90
56076;DHT22;41951;49.022;12.066;2023-04-19T01:28:59;9.10;99.90
56076;DHT22;41951;49.022;12.066;2023-04-19T01:31:25;9.10;99.90
56076;DHT22;41951;49.022;12.066;2023-04-19T01:33:51;9.10;99.90
56076;DHT22;41951;49.022;12.066;2023-04-19T01:36:16;9.10;99.90
56076;DHT22;41951;49.022;12.066;2023-04-19T01:38:42;9.00;99.90
56076;DHT22;41951;49.022;12.066;2023-04-19T01:41:08;9.00;99.90
56076;DHT22;41951;49.022;12.066;2023-04-19T01:43:34;9.00;99.90
56076;DHT22;41951;49.022;12.066;2023-04-19T01:45:59;8.90;99.90
56076;DHT22;41951;49.022;12.066;2023-04-19T01:48:25;8.90;99.90
56076;DHT22;41951;49.022;12.066;2023-04-19T01:50:51;8.90;99.90
56076;DHT22;41951;49.022;12.066;2023-04-19T01:53:16;8.90;99.90
56076;DHT22;41951;49.022;12.066;2023-04-19T01:55:42;8.80;99.90
56076;DHT22;41951;49.022;12.066;2023-04-19T01:58:08;8.80;99.90
56076;DHT22;41951;49.022;12.066;2023-04-19T02:00:34;8.90;99.90
56076;DHT22;41951;49.022;12.066;2023-04-19T02:02:59;8.80;99.90
56076;DHT22;41951;49.022;12.066;2023-04-19T02:05:25;8.90;99.90
56076;DHT22;41951;49.022;12.066;2023-04-19T02:07:50;8.80;99.90
56076;DHT22;41951;49.022;12.066;2023-04-19T02:10:16;8.80;99.90
56076;DHT22;41951;49.022;12.066;2023-04-19T02:12:41;8.80;99.90
56076;DHT22;41951;49.022;12.066;2023-04-19T02:15:07;8.80;99.90
56076;DHT22;41951;49.022;12.066;2023-04-19T02:17:33;8.80;99.90
56076;DHT22;41951;49.022;12.066;2023-04-19T02:19:59;8.80;99.90
56076;DHT22;41951;49.022;12.066;2023-04-19T02:22:24;8.80;99.90
56076;DHT22;41951;49.022;12.066;2023-04-19T02:24:50;8.80;99.90
56076;DHT22;41951;49.022;12.066;2023-04-19T02:27:16;8.70;99.90
56076;DHT22;41951;49.022;12.066;2023-04-19T02:29:42;8.80;99.90
56076;DHT22;41951;49.022;12.066;2023-04-19T02:32:10;8.70;99.90
56076;DHT22;41951;49.022;12.066;2023-04-19T02:34:36;8.70;99.90
56076;DHT22;41951;49.022;12.066;2023-04-19T02:37:01;8.70;99.90
56076;DHT22;41951;49.022;12.066;2023-04-19T02:39:27;8.60;99.90
56076;DHT22;41951;49.022;12.066;2023-04-19T02:41:54;8.60;99.90
56076;DHT22;41951;49.022;12.066;2023-04-19T02:44:20;8.60;99.90
56076;DHT22;41951;49.022;12.066;2023-04-19T02:46:52;8.70;99.90
56076;DHT22;41951;49.022;12.066;2023-04-19T02:49:19;8.60;99.90
56076;DHT22;41951;49.022;12.066;2023-04-19T02:51:45;8.60;99.90
56076;DHT22;41951;49.022;12.066;2023-04-19T02:54:11;8.60;99.90
56076;DHT22;41951;49.022;12.066;2023-04-19T02:56:37;8.60;99.90
56076;DHT22;41951;49.022;12.066;2023-04-19T02:59:03;8.60;99.90
56076;DHT22;41951;49.022;12.066;2023-04-19T03:01:29;8.60;99.90
56076;DHT22;41951;49.022;12.066;2023-04-19T03:03:55;8.50;99.90
56076;DHT22;41951;49.022;12.066;2023-04-19T03:06:20;8.50;99.90
56076;DHT22;41951;49.022;12.066;2023-04-19T03:08:46;8.50;99.90
56076;DHT22;41951;49.022;12.066;2023-04-19T03:11:13;8.50;99.90
56076;DHT22;41951;49.022;12.066;2023-04-19T03:13:38;8.50;99.90
56076;DHT22;41951;49.022;12.066;2023-04-19T03:16:05;8.50;99.90
56076;DHT22;41951;49.022;12.066;2023-04-19T03:18:31;8.50;99.90
56076;DHT22;41951;49.022;12.066;2023-04-19T03:20:57;8.50;99.90
56076;DHT22;41951;49.022;12.066;2023-04-19T03:23:24;8.50;99.90
56076;DHT22;41951;49.022;12.066;2023-04-19T03:25:49;8.50;99.90
56076;DHT22;41951;49.022;12.066;2023-04-19T03:28:15;8.50;99.90
56076;DHT22;41951;49.022;12.066;2023-04-19T03:30:41;8.50;99.90
56076;DHT22;41951;49.022;12.066;2023-04-19T03:33:06;8.50;99.90
56076;DHT22;41951;49.022;12.066;2023-04-19T03:35:32;8.40;99.90
56076;DHT22;41951;49.022;12.066;2023-04-19T03:37:58;8.40;99.90
56076;DHT22;41951;49.022;12.066;2023-04-19T03:40:23;8.50;99.90
56076;DHT22;41951;49.022;12.066;2023-04-19T03:42:49;8.40;99.90
56076;DHT22;41951;49.022;12.066;2023-04-19T03:45:15;8.40;99.90
56076;DHT22;41951;49.022;12.066;2023-04-19T03:47:40;8.40;99.90
56076;DHT22;41951;49.022;12.066;2023-04-19T03:50:06;8.40;99.90
56076;DHT22;41951;49.022;12.066;2023-04-19T03:52:32;8.40;99.90
56076;DHT22;41951;49.022;12.066;2023-04-19T03:54:58;8.30;99.90
56076;DHT22;41951;49.022;12.066;2023-04-19T03:57:23;8.30;99.90
56076;DHT22;41951;49.022;12.066;2023-04-19T03:59:49;8.30;99.90
56076;DHT22;41951;49.022;12.066;2023-04-19T04:02:15;8.30;99.90
56076;DHT22;41951;49.022;12.066;2023-04-19T04:04:40;8.30;99.90
56076;DHT22;41951;49.022;12.066;2023-04-19T04:07:06;8.30;99.90
56076;DHT22;41951;49.022;12.066;2023-04-19T04:09:31;8.30;99.90
56076;DHT22;41951;49.022;12.066;2023-04-19T04:11:57;8.40;99.90
56076;DHT22;41951;49.022;12.066;2023-04-19T04:14:23;8.40;99.90
56076;DHT22;41951;49.022;12.066;2023-04-19T04:16:48;8.30;99.90
56076;DHT22;41951;49.022;12.066;2023-04-19T04:19:14;8.40;99.90
56076;DHT22;41951;49.022;12.066;2023-04-19T04:21:40;8.30;99.90
56076;DHT22;41951;49.022;12.066;2023-04-19T04:24:06;8.40;99.90
56076;DHT22;41951;49.022;12.066;2023-04-19T04:26:32;8.40;99.90
56076;DHT22;41951;49.022;12.066;2023-04-19T04:28:59;8.30;99.90
56076;DHT22;41951;49.022;12.066;2023-04-19T04:31:26;8.30;99.90
56076;DHT22;41951;49.022;12.066;2023-04-19T04:33:52;8.30;99.90
56076;DHT22;41951;49.022;12.066;2023-04-19T04:36:20;8.30;99.90
56076;DHT22;41951;49.022;12.066;2023-04-19T04:38:46;8.30;99.90
56076;DHT22;41951;49.022;12.066;2023-04-19T04:41:12;8.30;99.90
56076;DHT22;41951;49.022;12.066;2023-04-19T04:43:37;8.30;99.90
56076;DHT22;41951;49.022;12.066;2023-04-19T04:46:04;8.30;99.90
56076;DHT22;41951;49.022;12.066;2023-04-19T04:48:30;8.30;99.90
56076;DHT22;41951;49.022;12.066;2023-04-19T04:50:56;8.40;99.90
56076;DHT22;41951;49.022;12.066;2023-04-19T04:53:22;8.30;99.90
56076;DHT22;41951;49.022;12.066;2023-04-19T04:55:53;8.30;99.90
56076;DHT22;41951;49.022;12.066;2023-04-19T04:58:19;8.20;99.90
56076;DHT22;41951;49.022;12.066;2023-04-19T05:00:45;8.20;99.90
56076;DHT22;41951;49.022;12.066;2023-04-19T05:03:11;8.20;99.90
56076;DHT22;41951;49.022;12.066;2023-04-19T05:05:36;8.20;99.90
56076;DHT22;41951;49.022;12.066;2023-04-19T05:08:03;8.20;99.90
56076;DHT22;41951;49.022;12.066;2023-04-19T05:10:28;8.20;99.90
56076;DHT22;41951;49.022;12.066;2023-04-19T05:12:54;8.10;99.90
56076;DHT22;41951;49.022;12.066;2023-04-19T05:15:20;8.10;99.90
56076;DHT22;41951;49.022;12.066;2023-04-19T05:17:45;8.10;99.90
56076;DHT22;41951;49.022;12.066;2023-04-19T05:20:11;8.10;99.90
56076;DHT22;41951;49.022;12.066;2023-04-19T05:22:37;8.10;99.90
56076;DHT22;41951;49.022;12.066;2023-04-19T05:25:03;8.10;99.90
56076;DHT22;41951;49.022;12.066;2023-04-19T05:27:29;8.20;99.90
56076;DHT22;41951;49.022;12.066;2023-04-19T05:29:54;8.20;99.90
56076;DHT22;41951;49.022;12.066;2023-04-19T05:32:23;8.20;99.90
56076;DHT22;41951;49.022;12.066;2023-04-19T05:34:48;8.30;99.90
56076;DHT22;41951;49.022;12.066;2023-04-19T05:37:14;8.20;99.90
56076;DHT22;41951;49.022;12.066;2023-04-19T05:39:39;8.20;99.90
56076;DHT22;41951;49.022;12.066;2023-04-19T05:42:05;8.20;99.90
56076;DHT22;41951;49.022;12.066;2023-04-19T05:44:31;8.20;99.90
56076;DHT22;41951;49.022;12.066;2023-04-19T05:46:56;8.30;99.90
56076;DHT22;41951;49.022;12.066;2023-04-19T05:49:22;8.20;99.90
56076;DHT22;41951;49.022;12.066;2023-04-19T05:51:48;8.30;99.90
56076;DHT22;41951;49.022;12.066;2023-04-19T05:54:13;8.40;99.90
56076;DHT22;41951;49.022;12.066;2023-04-19T05:56:39;8.50;99.90
56076;DHT22;41951;49.022;12.066;2023-04-19T05:59:05;8.50;99.90
56076;DHT22;41951;49.022;12.066;2023-04-19T06:01:31;8.60;99.90
56076;DHT22;41951;49.022;12.066;2023-04-19T06:03:56;8.50;99.90
56076;DHT22;41951;49.022;12.066;2023-04-19T06:06:22;8.60;99.90
56076;DHT22;41951;49.022;12.066;2023-04-19T06:08:48;8.60;99.90
56076;DHT22;41951;49.022;12.066;2023-04-19T06:11:14;8.70;99.90
56076;DHT22;41951;49.022;12.066;2023-04-19T06:13:39;8.70;99.90
56076;DHT22;41951;49.022;12.066;2023-04-19T06:16:06;8.70;99.90
56076;DHT22;41951;49.022;12.066;2023-04-19T06:18:32;8.70;99.90
56076;DHT22;41951;49.022;12.066;2023-04-19T06:20:58;8.80;99.90
56076;DHT22;41951;49.022;12.066;2023-04-19T06:23:23;8.90;99.90
56076;DHT22;41951;49.022;12.066;2023-04-19T06:25:49;8.90;99.90
56076;DHT22;41951;49.022;12.066;2023-04-19T06:28:15;8.90;99.90
56076;DHT22;41951;49.022;12.066;2023-04-19T06:30:41;9.00;99.90
56076;DHT22;41951;49.022;12.066;2023-04-19T06:33:06;9.00;99.90
56076;DHT22;41951;49.022;12.066;2023-04-19T06:35:32;9.10;99.90
56076;DHT22;41951;49.022;12.066;2023-04-19T06:37:58;9.10;99.90
56076;DHT22;41951;49.022;12.066;2023-04-19T06:40:25;9.20;99.90
56076;DHT22;41951;49.022;12.066;2023-04-19T06:42:51;9.20;99.90
56076;DHT22;41951;49.022;12.066;2023-04-19T06:45:17;9.20;99.90
56076;DHT22;41951;49.022;12.066;2023-04-19T06:47:42;9.20;99.90
56076;DHT22;41951;49.022;12.066;2023-04-19T06:50:09;9.20;99.90
56076;DHT22;41951;49.022;12.066;2023-04-19T06:52:35;9.20;99.90
56076;DHT22;41951;49.022;12.066;2023-04-19T06:55:01;9.10;99.90
56076;DHT22;41951;49.022;12.066;2023-04-19T06:57:26;9.20;99.90
56076;DHT22;41951;49.022;12.066;2023-04-19T06:59:53;9.10;99.90
56076;DHT22;41951;49.022;12.066;2023-04-19T07:02:19;9.10;99.90
56076;DHT22;41951;49.022;12.066;2023-04-19T07:04:45;9.10;99.90
56076;DHT22;41951;49.022;12.066;2023-04-19T07:07:11;9.10;99.90
56076;DHT22;41951;49.022;12.066;2023-04-19T07:09:37;9.10;99.90
56076;DHT22;41951;49.022;12.066;2023-04-19T07:12:02;9.00;99.90
56076;DHT22;41951;49.022;12.066;2023-04-19T07:14:28;9.00;99.90
56076;DHT22;41951;49.022;12.066;2023-04-19T07:16:54;9.00;99.90
56076;DHT22;41951;49.022;12.066;2023-04-19T07:19:19;9.00;99.90
56076;DHT22;41951;49.022;12.066;2023-04-19T07:21:46;9.00;99.90
56076;DHT22;41951;49.022;12.066;2023-04-19T07:24:12;9.00;99.90
56076;DHT22;41951;49.022;12.066;2023-04-19T07:26:38;9.00;99.90
56076;DHT22;41951;49.022;12.066;2023-04-19T07:29:03;8.90;99.90
56076;DHT22;41951;49.022;12.066;2023-04-19T07:31:29;8.90;99.90
56076;DHT22;41951;49.022;12.066;2023-04-19T07:33:54;8.90;99.90
56076;DHT22;41951;49.022;12.066;2023-04-19T07:36:20;8.90;99.90
56076;DHT22;41951;49.022;12.066;2023-04-19T07:38:46;8.90;99.90
56076;DHT22;41951;49.022;12.066;2023-04-19T07:41:12;8.90;99.90
56076;DHT22;41951;49.022;12.066;2023-04-19T07:43:37;9.00;99.90
56076;DHT22;41951;49.022;12.066;2023-04-19T07:46:14;9.00;99.90
56076;DHT22;41951;49.022;12.066;2023-04-19T07:48:43;9.00;99.90
56076;DHT22;41951;49.022;12.066;2023-04-19T07:51:12;9.00;99.90
56076;DHT22;41951;49.022;12.066;2023-04-19T07:53:39;9.00;99.90
56076;DHT22;41951;49.022;12.066;2023-04-19T07:56:06;9.00;99.90
56076;DHT22;41951;49.022;12.066;2023-04-19T07:58:32;9.00;99.90
56076;DHT22;41951;49.022;12.066;2023-04-19T08:00:58;9.00;99.90
56076;DHT22;41951;49.022;12.066;2023-04-19T08:03:24;9.00;99.90
56076;DHT22;41951;49.022;12.066;2023-04-19T08:05:49;9.00;99.90
56076;DHT22;41951;49.022;12.066;2023-04-19T08:08:15;9.10;99.90
56076;DHT22;41951;49.022;12.066;2023-04-19T08:10:41;9.00;99.90
56076;DHT22;41951;49.022;12.066;2023-04-19T08:13:07;9.10;99.90
56076;DHT22;41951;49.022;12.066;2023-04-19T08:15:33;9.10;99.90
56076;DHT22;41951;49.022;12.066;2023-04-19T08:17:59;9.10;99.90
56076;DHT22;41951;49.022;12.066;2023-04-19T08:20:25;9.10;99.90
56076;DHT22;41951;49.022;12.066;2023-04-19T08:22:51;9.10;99.90
56076;DHT22;41951;49.022;12.066;2023-04-19T08:25:17;9.10;99.90
56076;DHT22;41951;49.022;12.066;2023-04-19T08:27:42;9.10;99.90
56076;DHT22;41951;49.022;12.066;2023-04-19T08:30:08;9.10;99.90
56076;DHT22;41951;49.022;12.066;2023-04-19T08:32:35;9.00;99.90
56076;DHT22;41951;49.022;12.066;2023-04-19T08:35:01;9.10;99.90
56076;DHT22;41951;49.022;12.066;2023-04-19T08:37:26;9.10;99.90
56076;DHT22;41951;49.022;12.066;2023-04-19T08:39:52;9.10;99.90
56076;DHT22;41951;49.022;12.066;2023-04-19T08:42:18;9.10;99.90
56076;DHT22;41951;49.022;12.066;2023-04-19T08:44:45;9.10;99.90
56076;DHT22;41951;49.022;12.066;2023-04-19T08:47:10;9.10;99.90
56076;DHT22;41951;49.022;12.066;2023-04-19T08:49:38;9.10;99.90
56076;DHT22;41951;49.022;12.066;2023-04-19T08:52:05;9.20;99.90
56076;DHT22;41951;49.022;12.066;2023-04-19T08:54:31;9.20;99.90
56076;DHT22;41951;49.022;12.066;2023-04-19T08:56:59;9.30;99.90
56076;DHT22;41951;49.022;12.066;2023-04-19T08:59:25;9.30;99.90
56076;DHT22;41951;49.022;12.066;2023-04-19T09:01:51;9.30;99.90
56076;DHT22;41951;49.022;12.066;2023-04-19T09:04:16;9.40;99.90
56076;DHT22;41951;49.022;12.066;2023-04-19T09:06:42;9.40;99.90
56076;DHT22;41951;49.022;12.066;2023-04-19T09:09:28;9.30;99.90
56076;DHT22;41951;49.022;12.066;2023-04-19T09:11:54;9.30;99.90
56076;DHT22;41951;49.022;12.066;2023-04-19T09:14:20;9.30;99.90
56076;DHT22;41951;49.022;12.066;2023-04-19T09:16:46;9.30;99.90
56076;DHT22;41951;49.022;12.066;2023-04-19T09:19:12;9.40;99.90
56076;DHT22;41951;49.022;12.066;2023-04-19T09:21:38;9.40;99.90
56076;DHT22;41951;49.022;12.066;2023-04-19T09:24:05;9.40;99.90
56076;DHT22;41951;49.022;12.066;2023-04-19T09:26:32;9.30;99.90
56076;DHT22;41951;49.022;12.066;2023-04-19T09:29:00;9.40;99.90
56076;DHT22;41951;49.022;12.066;2023-04-19T09:31:31;9.40;99.90
56076;DHT22;41951;49.022;12.066;2023-04-19T09:33:56;9.50;99.90
56076;DHT22;41951;49.022;12.066;2023-04-19T09:36:30;9.50;99.90
56076;DHT22;41951;49.022;12.066;2023-04-19T09:38:56;9.50;99.90
56076;DHT22;41951;49.022;12.066;2023-04-19T09:41:22;9.60;99.90
56076;DHT22;41951;49.022;12.066;2023-04-19T09:43:47;9.70;99.90
56076;DHT22;41951;49.022;12.066;2023-04-19T09:46:36;9.60;99.90
56076;DHT22;41951;49.022;12.066;2023-04-19T09:51:40;9.60;99.90
56076;DHT22;41951;49.022;12.066;2023-04-19T09:54:10;9.60;99.90
56076;DHT22;41951;49.022;12.066;2023-04-19T09:56:36;9.60;99.90
56076;DHT22;41951;49.022;12.066;2023-04-19T09:59:02;9.50;99.90
56076;DHT22;41951;49.022;12.066;2023-04-19T10:04:06;9.30;99.90
56076;DHT22;41951;49.022;12.066;2023-04-19T10:06:34;9.20;99.90
56076;DHT22;41951;49.022;12.066;2023-04-19T10:09:01;9.10;99.90
56076;DHT22;41951;49.022;12.066;2023-04-19T10:11:33;8.90;99.90
56076;DHT22;41951;49.022;12.066;2023-04-19T10:14:07;8.90;99.90
56076;DHT22;41951;49.022;12.066;2023-04-19T10:16:34;8.80;99.90
56076;DHT22;41951;49.022;12.066;2023-04-19T10:19:11;8.70;99.90
56076;DHT22;41951;49.022;12.066;2023-04-19T10:21:38;8.60;99.90
56076;DHT22;41951;49.022;12.066;2023-04-19T10:24:04;8.60;99.90
56076;DHT22;41951;49.022;12.066;2023-04-19T10:29:59;8.50;99.90
56076;DHT22;41951;49.022;12.066;2023-04-19T10:32:38;8.50;99.90
56076;DHT22;41951;49.022;12.066;2023-04-19T10:35:16;8.40;99.90
56076;DHT22;41951;49.022;12.066;2023-04-19T10:43:21;8.40;99.90
56076;DHT22;41951;49.022;12.066;2023-04-19T10:45:47;8.30;99.90
56076;DHT22;41951;49.022;12.066;2023-04-19T10:48:30;8.20;99.90
56076;DHT22;41951;49.022;12.066;2023-04-19T10:51:10;8.30;99.90
56076;DHT22;41951;49.022;12.066;2023-04-19T10:53:58;8.30;99.90
56076;DHT22;41951;49.022;12.066;2023-04-19T11:01:40;8.30;99.90
56076;DHT22;41951;49.022;12.066;2023-04-19T11:06:34;8.20;99.90
56076;DHT22;41951;49.022;12.066;2023-04-19T11:09:00;8.30;99.90
56076;DHT22;41951;49.022;12.066;2023-04-19T11:11:35;8.40;99.90
56076;DHT22;41951;49.022;12.066;2023-04-19T11:14:02;8.40;99.90
56076;DHT22;41951;49.022;12.066;2023-04-19T11:16:29;8.40;99.90
56076;DHT22;41951;49.022;12.066;2023-04-19T11:18:54;8.30;99.90
56076;DHT22;41951;49.022;12.066;2023-04-19T11:21:20;8.30;99.90
56076;DHT22;41951;49.022;12.066;2023-04-19T11:23:46;8.20;99.90
56076;DHT22;41951;49.022;12.066;2023-04-19T11:26:15;8.30;99.90
56076;DHT22;41951;49.022;12.066;2023-04-19T11:28:40;8.30;99.90
56076;DHT22;41951;49.022;12.066;2023-04-19T11:31:06;8.20;99.90
56076;DHT22;41951;49.022;12.066;2023-04-19T11:33:32;8.20;99.90
56076;DHT22;41951;49.022;12.066;2023-04-19T11:35:58;8.20;99.90
56076;DHT22;41951;49.022;12.066;2023-04-19T11:38:29;8.10;99.90
56076;DHT22;41951;49.022;12.066;2023-04-19T11:41:02;8.10;99.90
56076;DHT22;41951;49.022;12.066;2023-04-19T11:43:35;8.10;99.90
56076;DHT22;41951;49.022;12.066;2023-04-19T11:46:19;8.10;99.90
56076;DHT22;41951;49.022;12.066;2023-04-19T11:48:51;8.00;99.90
56076;DHT22;41951;49.022;12.066;2023-04-19T11:51:18;8.10;99.90
56076;DHT22;41951;49.022;12.066;2023-04-19T11:53:43;8.10;99.90
56076;DHT22;41951;49.022;12.066;2023-04-19T11:56:09;8.10;99.90
56076;DHT22;41951;49.022;12.066;2023-04-19T11:58:43;8.20;99.90
56076;DHT22;41951;49.022;12.066;2023-04-19T12:01:20;8.20;99.90
56076;DHT22;41951;49.022;12.066;2023-04-19T12:03:48;8.30;99.90
56076;DHT22;41951;49.022;12.066;2023-04-19T12:06:25;8.30;99.90
56076;DHT22;41951;49.022;12.066;2023-04-19T12:08:52;8.40;99.90
56076;DHT22;41951;49.022;12.066;2023-04-19T12:11:22;8.40;99.90
56076;DHT22;41951;49.022;12.066;2023-04-19T12:14:07;8.40;99.90
56076;DHT22;41951;49.022;12.066;2023-04-19T12:16:33;8.50;99.90
56076;DHT22;41951;49.022;12.066;2023-04-19T12:19:13;8.60;99.90
56076;DHT22;41951;49.022;12.066;2023-04-19T12:21:39;8.60;99.90
56076;DHT22;41951;49.022;12.066;2023-04-19T12:24:05;8.70;99.90
56076;DHT22;41951;49.022;12.066;2023-04-19T12:26:30;8.70;99.90
56076;DHT22;41951;49.022;12.066;2023-04-19T12:28:58;8.70;99.90
56076;DHT22;41951;49.022;12.066;2023-04-19T12:31:24;8.80;99.90
56076;DHT22;41951;49.022;12.066;2023-04-19T12:33:50;8.90;99.90
56076;DHT22;41951;49.022;12.066;2023-04-19T12:36:16;8.90;99.90
56076;DHT22;41951;49.022;12.066;2023-04-19T12:38:42;9.00;99.90
56076;DHT22;41951;49.022;12.066;2023-04-19T12:41:07;9.00;99.90
56076;DHT22;41951;49.022;12.066;2023-04-19T12:43:33;9.10;99.90
56076;DHT22;41951;49.022;12.066;2023-04-19T12:45:59;9.10;99.90
56076;DHT22;41951;49.022;12.066;2023-04-19T12:48:25;9.00;99.90
56076;DHT22;41951;49.022;12.066;2023-04-19T12:50:51;9.00;99.90
56076;DHT22;41951;49.022;12.066;2023-04-19T12:53:17;8.90;99.90
56076;DHT22;41951;49.022;12.066;2023-04-19T12:55:43;9.00;99.90
56076;DHT22;41951;49.022;12.066;2023-04-19T12:58:13;9.10;99.90
56076;DHT22;41951;49.022;12.066;2023-04-19T13:00:39;9.10;99.90
56076;DHT22;41951;49.022;12.066;2023-04-19T13:03:04;9.20;99.90
56076;DHT22;41951;49.022;12.066;2023-04-19T13:05:30;9.30;99.90
56076;DHT22;41951;49.022;12.066;2023-04-19T13:07:56;9.40;99.90
56076;DHT22;41951;49.022;12.066;2023-04-19T13:10:21;9.40;99.90
56076;DHT22;41951;49.022;12.066;2023-04-19T13:12:47;9.40;99.90
56076;DHT22;41951;49.022;12.066;2023-04-19T13:15:12;9.30;99.90
56076;DHT22;41951;49.022;12.066;2023-04-19T13:17:38;9.30;99.90
56076;DHT22;41951;49.022;12.066;2023-04-19T13:20:04;9.40;99.90
56076;DHT22;41951;49.022;12.066;2023-04-19T13:22:31;9.40;99.90
56076;DHT22;41951;49.022;12.066;2023-04-19T13:24:57;9.50;99.90
56076;DHT22;41951;49.022;12.066;2023-04-19T13:27:22;9.60;99.90
56076;DHT22;41951;49.022;12.066;2023-04-19T13:29:48;9.70;99.90
56076;DHT22;41951;49.022;12.066;2023-04-19T13:32:14;9.80;99.90
56076;DHT22;41951;49.022;12.066;2023-04-19T13:34:39;10.00;99.90
56076;DHT22;41951;49.022;12.066;2023-04-19T13:37:06;10.10;99.90
56076;DHT22;41951;49.022;12.066;2023-04-19T13:39:32;10.20;99.90
56076;DHT22;41951;49.022;12.066;2023-04-19T13:41:57;10.30;99.90
56076;DHT22;41951;49.022;12.066;2023-04-19T13:44:23;10.40;99.90
56076;DHT22;41951;49.022;12.066;2023-04-19T13:46:50;10.50;99.90
56076;DHT22;41951;49.022;12.066;2023-04-19T13:49:17;10.70;99.90
56076;DHT22;41951;49.022;12.066;2023-04-19T13:51:43;10.90;99.90
56076;DHT22;41951;49.022;12.066;2023-04-19T13:54:08;11.10;99.90
56076;DHT22;41951;49.022;12.066;2023-04-19T13:56:34;11.70;99.90
56076;DHT22;41951;49.022;12.066;2023-04-19T13:59:00;11.90;99.90
56076;DHT22;41951;49.022;12.066;2023-04-19T14:01:26;11.80;99.90
56076;DHT22;41951;49.022;12.066;2023-04-19T14:03:51;11.60;99.90
56076;DHT22;41951;49.022;12.066;2023-04-19T14:06:17;11.50;99.90
56076;DHT22;41951;49.022;12.066;2023-04-19T14:08:43;11.40;99.90
56076;DHT22;41951;49.022;12.066;2023-04-19T14:11:09;11.40;99.90
56076;DHT22;41951;49.022;12.066;2023-04-19T14:13:34;11.70;99.90
56076;DHT22;41951;49.022;12.066;2023-04-19T14:16:00;12.00;99.90
56076;DHT22;41951;49.022;12.066;2023-04-19T14:18:25;12.10;99.90
56076;DHT22;41951;49.022;12.066;2023-04-19T14:20:51;12.10;99.90
56076;DHT22;41951;49.022;12.066;2023-04-19T14:23:17;11.90;99.90
56076;DHT22;41951;49.022;12.066;2023-04-19T14:25:42;11.80;99.90
56076;DHT22;41951;49.022;12.066;2023-04-19T14:28:08;11.60;99.90
56076;DHT22;41951;49.022;12.066;2023-04-19T14:30:33;12.00;99.90
56076;DHT22;41951;49.022;12.066;2023-04-19T14:32:59;12.10;99.90
56076;DHT22;41951;49.022;12.066;2023-04-19T14:35:25;12.60;99.90
56076;DHT22;41951;49.022;12.066;2023-04-19T14:37:50;13.20;99.90
56076;DHT22;41951;49.022;12.066;2023-04-19T14:40:16;13.60;99.90
56076;DHT22;41951;49.022;12.066;2023-04-19T14:42:42;13.70;99.90
56076;DHT22;41951;49.022;12.066;2023-04-19T14:45:08;13.60;99.90
56076;DHT22;41951;49.022;12.066;2023-04-19T14:47:34;13.50;99.90
56076;DHT22;41951;49.022;12.066;2023-04-19T14:50:00;13.20;99.90
56076;DHT22;41951;49.022;12.066;2023-04-19T14:52:25;12.80;99.90
56076;DHT22;41951;49.022;12.066;2023-04-19T14:54:51;12.60;99.90
56076;DHT22;41951;49.022;12.066;2023-04-19T14:57:17;12.60;99.90
56076;DHT22;41951;49.022;12.066;2023-04-19T14:59:42;12.50;99.90
56076;DHT22;41951;49.022;12.066;2023-04-19T15:02:08;12.40;99.90
56076;DHT22;41951;49.022;12.066;2023-04-19T15:04:35;12.20;99.90
56076;DHT22;41951;49.022;12.066;2023-04-19T15:07:02;11.90;99.90
56076;DHT22;41951;49.022;12.066;2023-04-19T15:09:27;11.70;99.90
56076;DHT22;41951;49.022;12.066;2023-04-19T15:11:53;11.70;99.90
56076;DHT22;41951;49.022;12.066;2023-04-19T15:14:19;12.00;99.90
56076;DHT22;41951;49.022;12.066;2023-04-19T15:16:44;13.30;99.90
56076;DHT22;41951;49.022;12.066;2023-04-19T15:19:10;15.30;99.90
56076;DHT22;41951;49.022;12.066;2023-04-19T15:21:36;16.70;99.90
56076;DHT22;41951;49.022;12.066;2023-04-19T15:24:02;16.20;99.90
56076;DHT22;41951;49.022;12.066;2023-04-19T15:26:28;15.50;99.90
56076;DHT22;41951;49.022;12.066;2023-04-19T15:28:54;15.30;99.90
56076;DHT22;41951;49.022;12.066;2023-04-19T15:31:20;17.10;99.90
56076;DHT22;41951;49.022;12.066;2023-04-19T15:33:46;19.30;99.90
56076;DHT22;41951;49.022;12.066;2023-04-19T15:36:11;20.40;99.90
56076;DHT22;41951;49.022;12.066;2023-04-19T15:38:37;19.60;99.90
56076;DHT22;41951;49.022;12.066;2023-04-19T15:41:03;18.20;99.90
56076;DHT22;41951;49.022;12.066;2023-04-19T15:43:28;16.80;99.90
56076;DHT22;41951;49.022;12.066;2023-04-19T15:45:54;15.60;99.90